createdAt,value
2019-04-11T00:01:17.262Z,2.27
2019-04-11T00:06:26.327Z,2.18
2019-04-11T00:11:35.782Z,2.16
2019-04-11T00:16:44.083Z,2.22
2019-04-11T00:21:53.369Z,1.93
2019-04-11T00:27:02.517Z,2.00
2019-04-11T00:32:12.261Z,2.22
2019-04-11T00:37:21.080Z,2.10
2019-04-11T00:42:28.954Z,2.21
2019-04-11T00:47:39.484Z,2.27
2019-04-11T00:52:47.582Z,2.03
2019-04-11T00:57:55.755Z,2.03
2019-04-11T01:03:06.448Z,2.26
2019-04-11T01:08:14.146Z,2.26
2019-04-11T01:13:23.816Z,1.80
2019-04-11T01:18:31.913Z,2.08
2019-04-11T01:23:41.113Z,2.00
2019-04-11T01:28:51.989Z,1.97
2019-04-11T01:33:58.815Z,2.13
2019-04-11T01:39:08.493Z,2.28
2019-04-11T01:44:16.569Z,1.93
2019-04-11T01:49:25.694Z,1.89
2019-04-11T01:54:35.466Z,1.85
2019-04-11T01:59:43.778Z,1.81
2019-04-11T02:04:52.297Z,2.25
2019-04-11T02:10:02.443Z,1.96
2019-04-11T02:15:10.282Z,1.94
2019-04-11T02:20:18.772Z,2.02
2019-04-11T02:25:28.226Z,2.06
2019-04-11T02:30:38.225Z,1.89
2019-04-11T02:35:46.586Z,2.06
2019-04-11T02:40:55.083Z,1.97
2019-04-11T02:46:14.275Z,1.88
2019-04-11T02:51:12.364Z,2.19
2019-04-11T02:56:21.182Z,1.93
2019-04-11T03:01:28.559Z,1.89
2019-04-11T03:06:37.603Z,2.00
2019-04-11T03:11:47.168Z,1.93
2019-04-11T03:17:02.461Z,2.04
2019-04-11T03:22:05.480Z,1.99
2019-04-11T03:27:12.542Z,1.96
2019-04-11T03:33:02.044Z,1.92
2019-04-11T03:37:54.021Z,2.04
2019-04-11T03:42:53.886Z,2.01
2019-04-11T03:48:02.268Z,1.97
2019-04-11T03:52:57.841Z,2.00
2019-04-11T03:58:06.176Z,1.91
2019-04-11T04:03:14.157Z,2.31
2019-04-11T04:08:22.474Z,1.89
2019-04-11T04:13:31.856Z,1.92
2019-04-11T04:18:40.346Z,1.90
2019-04-11T04:23:49.566Z,1.92
2019-04-11T04:28:57.807Z,1.88
2019-04-11T04:34:07.181Z,1.81
2019-04-11T04:39:13.935Z,1.95
2019-04-11T04:44:24.785Z,1.82
2019-04-11T04:49:32.408Z,1.92
2019-04-11T04:54:41.035Z,1.67
2019-04-11T04:59:49.044Z,1.90
2019-04-11T05:04:58.761Z,1.83
2019-04-11T05:10:08.664Z,1.89
2019-04-11T05:15:16.708Z,2.02
2019-04-11T05:20:24.038Z,1.87
2019-04-11T05:25:33.165Z,1.78
2019-04-11T05:30:42.467Z,2.02
2019-04-11T05:35:52.118Z,1.84
2019-04-11T05:41:00.259Z,1.72
2019-04-11T05:46:24.027Z,1.84
2019-04-11T05:51:21.182Z,2.04
2019-04-11T05:56:27.845Z,1.82
2019-04-11T06:01:36.329Z,1.73
2019-04-11T06:06:44.586Z,1.63
2019-04-11T06:11:56.053Z,1.77
2019-04-11T06:17:02.291Z,1.91
2019-04-11T06:22:11.340Z,1.96
2019-04-11T06:27:20.455Z,2.19
2019-04-11T06:32:29.932Z,1.88
2019-04-11T06:37:38.225Z,1.85
2019-04-11T06:42:47.676Z,1.98
2019-04-11T06:47:56.983Z,2.12
2019-04-11T06:53:04.686Z,1.99
2019-04-11T06:58:14.992Z,1.83
2019-04-11T07:03:25.472Z,1.76
2019-04-11T07:08:34.820Z,2.36
2019-04-11T07:13:33.814Z,2.20
2019-04-11T07:18:44.225Z,1.94
2019-04-11T07:23:53.404Z,2.04
2019-04-11T07:29:01.195Z,1.93
2019-04-11T07:34:10.647Z,1.96
2019-04-11T07:39:20.078Z,2.06
2019-04-11T07:44:28.819Z,2.06
2019-04-11T07:49:37.185Z,1.84
2019-04-11T07:54:45.619Z,1.86
2019-04-11T07:59:53.454Z,1.82
2019-04-11T08:05:02.646Z,1.79
2019-04-11T08:10:11.698Z,1.79
2019-04-11T08:15:21.674Z,1.83
2019-04-11T08:20:29.387Z,1.98
2019-04-11T08:25:39.731Z,1.92
2019-04-11T08:30:48.809Z,2.02
2019-04-11T08:35:58.003Z,1.97
2019-04-11T08:41:05.248Z,2.04
2019-04-11T08:46:15.021Z,2.12
2019-04-11T08:51:23.325Z,2.12
2019-04-11T08:56:32.394Z,2.21
2019-04-11T09:01:42.409Z,2.58
2019-04-11T09:06:50.098Z,2.31
2019-04-11T09:12:00.450Z,2.55
2019-04-11T09:17:07.996Z,2.64
2019-04-11T09:22:17.159Z,2.40
2019-04-11T09:27:26.788Z,2.48
2019-04-11T09:32:34.706Z,2.48
2019-04-11T09:37:44.524Z,2.30
2019-04-11T09:42:53.465Z,2.61
2019-04-11T09:48:08.539Z,2.32
2019-04-11T09:53:10.418Z,2.50
2019-04-11T09:58:19.653Z,2.46
2019-04-11T10:03:28.691Z,2.63
2019-04-11T10:08:37.744Z,2.76
2019-04-11T10:13:46.871Z,2.89
2019-04-11T10:18:55.926Z,2.96
2019-04-11T10:24:05.215Z,2.65
2019-04-11T10:29:14.912Z,2.87
2019-04-11T10:34:23.704Z,3.42
2019-04-11T10:39:31.486Z,4.04
2019-04-11T10:44:40.643Z,3.34
2019-04-11T10:49:50.547Z,3.45
2019-04-11T10:54:58.353Z,3.88
2019-04-11T11:00:07.406Z,4.42
2019-04-11T11:05:17.938Z,4.56
2019-04-11T11:10:25.775Z,3.88
2019-04-11T11:15:34.206Z,3.95
2019-04-11T11:20:48.111Z,3.98
2019-04-11T11:25:53.062Z,5.26
2019-04-11T11:31:00.498Z,4.90
2019-04-11T11:36:11.032Z,5.27
2019-04-11T11:41:18.481Z,5.07
2019-04-11T11:46:29.634Z,5.25
2019-04-11T11:51:35.450Z,5.09
2019-04-11T11:56:44.627Z,5.44
2019-04-11T12:01:54.301Z,4.75
2019-04-11T12:07:03.892Z,4.71
2019-04-11T12:12:11.417Z,4.38
2019-04-11T12:17:20.705Z,4.77
2019-04-11T12:22:28.510Z,5.76
2019-04-11T12:27:37.143Z,4.87
2019-04-11T12:32:46.429Z,5.35
2019-04-11T12:37:54.456Z,5.55
2019-04-11T12:43:02.795Z,5.47
2019-04-11T12:48:12.685Z,6.47
2019-04-11T12:53:20.843Z,6.02
2019-04-11T12:58:30.022Z,5.54
2019-04-11T13:03:39.083Z,6.14
2019-04-11T13:08:48.269Z,6.65
2019-04-11T13:13:57.325Z,6.85
2019-04-11T13:19:06.503Z,6.48
2019-04-11T13:24:24.956Z,6.97
2019-04-11T13:29:23.118Z,7.03
2019-04-11T13:34:32.243Z,6.89
2019-04-11T13:39:41.442Z,7.05
2019-04-11T13:44:50.562Z,7.31
2019-04-11T13:49:59.613Z,7.15
2019-04-11T13:55:08.784Z,6.88
2019-04-11T14:00:17.859Z,6.63
2019-04-11T14:05:27.042Z,7.47
2019-04-11T14:10:36.112Z,6.54
2019-04-11T14:15:45.302Z,6.73
2019-04-11T14:20:54.395Z,7.05
2019-04-11T14:26:03.535Z,6.83
2019-04-11T14:31:14.817Z,6.86
2019-04-11T14:36:13.903Z,6.55
2019-04-11T14:41:22.958Z,6.96
2019-04-11T14:46:32.092Z,6.48
2019-04-11T14:51:41.155Z,6.50
2019-04-11T14:56:52.308Z,6.14
2019-04-11T15:02:01.094Z,6.48
2019-04-11T15:07:07.589Z,6.80
2019-04-11T15:12:17.946Z,6.08
2019-04-11T15:17:26.405Z,6.47
2019-04-11T15:22:35.712Z,6.32
2019-04-11T15:27:42.544Z,6.33
2019-04-11T15:32:51.909Z,6.24
2019-04-11T15:38:01.183Z,5.37
2019-04-11T15:43:11.867Z,5.65
2019-04-11T15:48:22.786Z,4.84
2019-04-11T15:53:27.549Z,4.38
2019-04-11T15:58:36.669Z,4.31
2019-04-11T16:03:45.789Z,5.46
2019-04-11T16:08:54.849Z,4.31
2019-04-11T16:14:03.974Z,5.09
2019-04-11T16:19:14.782Z,5.34
2019-04-11T16:24:22.623Z,5.37
2019-04-11T16:29:30.945Z,4.89
2019-04-11T16:34:48.387Z,4.91
2019-04-11T16:39:52.081Z,4.86
2019-04-11T16:44:57.321Z,4.93
2019-04-11T16:50:06.445Z,4.79
2019-04-11T16:55:15.622Z,4.77
2019-04-11T17:00:24.929Z,4.59
2019-04-11T17:05:33.974Z,4.69
2019-04-11T17:10:43.249Z,4.88
2019-04-11T17:15:52.309Z,4.69
2019-04-11T17:21:01.468Z,3.96
2019-04-11T17:26:10.523Z,4.26
2019-04-11T17:31:19.714Z,5.06
2019-04-11T17:36:30.723Z,5.24
2019-04-11T17:41:41.686Z,4.86
2019-04-11T17:51:56.053Z,5.29
2019-04-11T17:57:00.954Z,5.16
2019-04-11T18:02:10.508Z,5.10
2019-04-11T18:07:18.794Z,5.20
2019-04-11T18:12:27.955Z,5.26
2019-04-11T18:17:37.200Z,5.42
2019-04-11T18:22:50.089Z,5.32
2019-04-11T18:27:55.021Z,5.66
2019-04-11T18:33:04.351Z,5.44
2019-04-11T18:38:25.186Z,4.27
2019-04-11T18:43:16.269Z,4.70
2019-04-11T18:48:22.918Z,5.06
2019-04-11T18:53:30.662Z,5.22
2019-04-11T18:58:39.730Z,4.93
2019-04-11T19:03:48.863Z,4.93
2019-04-11T19:08:57.985Z,4.93
2019-04-11T19:14:07.111Z,4.62
2019-04-11T19:19:18.326Z,4.34
2019-04-11T19:24:35.096Z,4.76
2019-04-11T19:29:34.326Z,5.01
2019-04-11T19:34:43.504Z,4.89
2019-04-11T19:39:52.569Z,4.86
2019-04-11T19:45:02.987Z,4.83
2019-04-11T19:50:09.609Z,5.74
2019-04-11T19:55:19.479Z,5.53
2019-04-11T20:00:28.510Z,5.26
2019-04-11T20:05:37.631Z,5.23
2019-04-11T20:10:46.693Z,5.68
2019-04-11T20:15:55.890Z,5.15
2019-04-11T20:21:07.300Z,5.43
2019-04-11T20:26:13.639Z,4.97
2019-04-11T20:31:22.690Z,4.83
2019-04-11T20:36:33.587Z,5.29
2019-04-11T20:41:40.619Z,4.69
2019-04-11T20:46:49.735Z,5.18
2019-04-11T20:51:58.849Z,4.96
2019-04-11T20:57:11.911Z,5.32
2019-04-11T21:02:16.614Z,4.94
2019-04-11T21:07:25.741Z,4.41
2019-04-11T21:12:36.973Z,3.98
2019-04-11T21:17:43.446Z,3.48
2019-04-11T21:22:53.986Z,3.48
2019-04-11T21:28:02.142Z,3.00
2019-04-11T21:33:03.543Z,3.18
2019-04-11T21:38:09.862Z,2.88
2019-04-11T21:43:18.921Z,3.19
2019-04-11T21:48:28.141Z,3.00
2019-04-11T21:53:37.172Z,2.82
2019-04-11T21:58:49.872Z,2.81
2019-04-11T22:03:57.703Z,2.75
2019-04-11T22:09:05.092Z,3.00
2019-04-11T22:14:12.046Z,3.00
2019-04-11T22:19:21.230Z,2.95
2019-04-11T22:24:30.263Z,2.89
2019-04-11T22:29:39.427Z,2.53
2019-04-11T22:34:48.446Z,2.43
2019-04-11T22:40:01.654Z,2.98
2019-04-11T22:45:08.367Z,3.17
2019-04-11T22:50:15.303Z,2.44
2019-04-11T22:55:24.878Z,2.19
2019-04-11T23:00:34.041Z,1.91
2019-04-11T23:05:46.559Z,2.46
2019-04-11T23:10:51.772Z,2.30
2019-04-11T23:16:00.790Z,2.02
2019-04-11T23:21:11.853Z,2.19
2019-04-11T23:26:18.438Z,2.23
2019-04-11T23:31:27.577Z,2.11
2019-04-11T23:36:36.631Z,1.85
2019-04-11T23:41:49.658Z,2.19
2019-04-11T23:46:54.339Z,2.09
2019-04-11T23:52:03.454Z,2.10
2019-04-11T23:57:12.491Z,2.08
